Time;durP1;ratioP1;P1;durP2;ratioP2;P2;SDS_P1;SDS_P2;PMS_P1;PMS_P2;Temp;Humidity;BMP_temperature;BMP_pressure;BME280_temperature;BME280_humidity;BME280_pressure;Samples;Min_cycle;Max_cycle;Signal;HPM_P1;HPM_P2
2021/03/13 00:00:22;;;;;;;3.17;0.98;;;;;;;18.72;51.46;98170.59;4891509;29;20606;-71
2021/03/13 00:02:49;;;;;;;4.53;1.17;;;;;;;18.72;51.27;98161.81;4843123;29;20043;-69
2021/03/13 00:05:27;;;;;;;3.22;1.35;;;;;;;18.70;51.11;98172.69;4875279;29;20032;-69
2021/03/13 00:07:52;;;;;;;4.07;1.48;;;;;;;18.71;51.16;98168.19;4874487;29;20413;-71
2021/03/13 00:10:19;;;;;;;2.50;1.25;;;;;;;18.69;51.09;98172.97;4892754;29;20049;-71
2021/03/13 00:12:45;;;;;;;1.95;1.00;;;;;;;18.68;51.29;98168.72;4865369;29;20036;-69
2021/03/13 00:15:15;;;;;;;2.30;1.02;;;;;;;18.67;50.93;98173.22;4861444;29;20521;-70
2021/03/13 00:17:45;;;;;;;3.08;0.93;;;;;;;18.67;50.95;98181.19;4894580;29;20100;-70
2021/03/13 00:20:13;;;;;;;3.60;1.10;;;;;;;18.67;51.02;98177.72;4887528;29;20045;-72
2021/03/13 00:22:39;;;;;;;3.58;1.15;;;;;;;18.66;50.79;98173.47;4876144;29;20076;-70
2021/03/13 00:25:06;;;;;;;4.72;1.25;;;;;;;18.65;50.82;98175.31;4877666;29;20473;-70
2021/03/13 00:27:31;;;;;;;3.28;1.02;;;;;;;18.65;50.96;98177.19;4881459;29;20044;-69
2021/03/13 00:29:58;;;;;;;3.90;1.30;;;;;;;18.64;50.85;98163.09;4870031;29;20040;-70
2021/03/13 00:32:23;;;;;;;3.47;1.33;;;;;;;18.63;50.85;98172.13;4907263;29;20135;-70
2021/03/13 00:34:51;;;;;;;2.72;1.25;;;;;;;18.64;50.59;98170.28;4887550;29;20040;-69
2021/03/13 00:37:16;;;;;;;4.03;1.30;;;;;;;18.61;51.07;98163.56;4879945;29;20501;-70
2021/03/13 00:39:42;;;;;;;1.83;0.93;;;;;;;18.62;50.82;98161.72;4894201;29;20045;-70
2021/03/13 00:42:08;;;;;;;2.78;1.00;;;;;;;18.60;50.58;98156.66;4880675;29;20123;-70
2021/03/13 00:44:33;;;;;;;2.67;1.27;;;;;;;18.59;50.75;98173.63;4890751;29;20068;-70
2021/03/13 00:46:58;;;;;;;4.07;1.20;;;;;;;18.58;50.64;98169.38;4895118;29;20039;-70
2021/03/13 00:49:24;;;;;;;2.45;1.40;;;;;;;18.58;50.48;98174.69;4882734;29;20096;-70
2021/03/13 00:51:49;;;;;;;3.50;1.27;;;;;;;18.58;50.55;98173.91;4892843;29;20064;-70
2021/03/13 00:54:15;;;;;;;2.60;1.20;;;;;;;18.55;50.52;98176.00;4874663;29;20040;-70
2021/03/13 00:56:40;;;;;;;3.58;1.05;;;;;;;18.55;50.32;98176.00;4882804;29;20139;-70
2021/03/13 00:59:06;;;;;;;4.70;1.30;;;;;;;18.55;50.32;98180.53;4893578;29;20036;-70
2021/03/13 01:01:31;;;;;;;3.00;1.15;;;;;;;18.54;50.09;98186.88;4876181;29;20429;-71
2021/03/13 01:03:57;;;;;;;4.30;1.30;;;;;;;18.52;50.44;98187.13;4877204;29;20124;-70
2021/03/13 01:06:22;;;;;;;3.35;1.40;;;;;;;18.53;50.11;98190.59;4893394;29;20589;-70
2021/03/13 01:08:48;;;;;;;1.88;0.98;;;;;;;18.53;50.04;98187.94;4875782;29;20502;-71
2021/03/13 01:11:14;;;;;;;2.65;1.17;;;;;;;18.51;50.38;98204.13;4892807;29;20033;-70
2021/03/13 01:13:39;;;;;;;4.40;1.48;;;;;;;18.51;49.98;98205.97;4893689;29;20040;-70
2021/03/13 01:16:05;;;;;;;3.13;1.20;;;;;;;18.51;50.14;98204.13;4893084;29;20485;-70
2021/03/13 01:18:31;;;;;;;2.80;1.10;;;;;;;18.51;50.11;98205.97;4889069;29;20068;-71
2021/03/13 01:20:56;;;;;;;2.50;1.05;;;;;;;18.48;49.92;98207.28;4891531;29;20476;-70
2021/03/13 01:23:21;;;;;;;2.97;1.10;;;;;;;18.49;50.20;98214.19;4871696;29;20034;-70
2021/03/13 01:25:47;;;;;;;2.72;1.10;;;;;;;18.47;49.91;98208.34;4893055;29;20444;-69
2021/03/13 01:28:12;;;;;;;3.13;1.30;;;;;;;18.47;50.10;98213.66;4873542;29;20041;-70
2021/03/13 01:30:41;;;;;;;3.92;1.25;;;;;;;18.45;49.95;98213.06;4876453;29;20036;-70
2021/03/13 01:33:07;;;;;;;3.50;1.05;;;;;;;18.45;50.00;98217.59;4892656;29;20143;-70
2021/03/13 01:35:32;;;;;;;3.35;1.13;;;;;;;18.45;49.99;98236.16;4891426;29;20817;-70
2021/03/13 01:37:58;;;;;;;2.53;0.93;;;;;;;18.44;49.80;98231.91;4881099;29;20140;-70
2021/03/13 01:40:23;;;;;;;3.63;1.10;;;;;;;18.44;50.11;98235.38;4864220;29;20097;-69
2021/03/13 01:42:50;;;;;;;2.00;0.90;;;;;;;18.43;49.80;98228.47;4871399;29;20029;-70
2021/03/13 01:45:19;;;;;;;3.38;1.27;;;;;;;18.42;49.71;98229.50;4879931;29;20084;-69
2021/03/13 01:47:45;;;;;;;3.33;1.20;;;;;;;18.43;49.47;98233.75;4887717;29;20037;-69
2021/03/13 01:50:12;;;;;;;3.55;1.08;;;;;;;18.42;49.75;98239.31;4880667;29;20481;-70
2021/03/13 01:52:38;;;;;;;3.38;1.00;;;;;;;18.41;49.76;98249.16;4870973;29;20085;-70
2021/03/13 01:55:06;;;;;;;2.65;1.00;;;;;;;18.41;49.52;98238.53;4893180;29;20127;-70
2021/03/13 01:57:32;;;;;;;2.20;1.00;;;;;;;18.41;49.90;98251.00;4893036;29;20044;-70
2021/03/13 01:59:57;;;;;;;2.08;1.20;;;;;;;18.40;49.60;98247.53;4892545;29;20045;-70
2021/03/13 02:02:23;;;;;;;3.00;1.02;;;;;;;18.40;49.50;98262.66;4873919;29;20048;-69
2021/03/13 02:04:48;;;;;;;2.63;1.05;;;;;;;18.39;49.28;98253.91;4860403;29;20048;-70
2021/03/13 02:07:43;;;;;;;3.03;1.00;;;;;;;18.38;49.36;98275.41;4872040;29;20470;-69
2021/03/13 02:10:15;;;;;;;3.30;1.30;;;;;;;18.38;49.76;98273.53;4875762;29;20048;-69
2021/03/13 02:12:59;;;;;;;1.92;0.70;;;;;;;18.36;49.67;98282.81;4893174;29;20046;-69
2021/03/13 02:15:46;;;;;;;3.17;1.42;;;;;;;18.36;49.60;98273.00;4892835;29;20040;-69
2021/03/13 02:18:26;;;;;;;3.03;0.98;;;;;;;18.35;49.32;98292.63;4891683;29;20051;-69
2021/03/13 02:21:13;;;;;;;2.42;1.30;;;;;;;18.34;49.38;98290.22;4891597;29;20466;-69
2021/03/13 02:23:56;;;;;;;2.55;1.00;;;;;;;18.34;49.29;98291.03;4889553;29;20052;-70
2021/03/13 02:26:54;;;;;;;4.05;1.20;;;;;;;18.32;49.39;98303.75;4892489;29;20041;-70
2021/03/13 02:29:58;;;;;;;1.95;1.00;;;;;;;18.30;49.48;98295.19;4887947;29;20119;-69
2021/03/13 02:32:32;;;;;;;3.50;1.05;;;;;;;18.33;49.44;98305.34;4795163;29;20042;-69
2021/03/13 02:35:02;;;;;;;1.63;0.80;;;;;;;18.33;49.46;98308.00;4874893;29;20519;-69
2021/03/13 02:37:33;;;;;;;2.50;1.20;;;;;;;18.32;49.32;98309.06;4888519;29;20033;-70
2021/03/13 02:40:02;;;;;;;3.08;1.00;;;;;;;18.32;49.33;98308.25;4866911;29;20177;-70
2021/03/13 02:42:30;;;;;;;2.53;1.05;;;;;;;18.31;49.55;98310.09;4886127;29;20037;-70
2021/03/13 02:44:58;;;;;;;2.20;0.93;;;;;;;18.32;49.40;98316.22;4885011;29;20048;-69
2021/03/13 02:47:25;;;;;;;2.70;1.10;;;;;;;18.31;49.07;98318.06;4891428;29;20122;-70
2021/03/13 02:49:53;;;;;;;2.15;0.90;;;;;;;18.30;48.91;98316.44;4893608;29;20507;-70
2021/03/13 02:52:20;;;;;;;1.80;0.90;;;;;;;18.30;49.13;98316.44;4877413;29;20099;-70
2021/03/13 02:54:48;;;;;;;3.45;0.90;;;;;;;18.30;48.91;98315.63;4871847;29;20060;-69
2021/03/13 02:57:16;;;;;;;2.78;0.90;;;;;;;18.29;49.10;98325.44;4874838;29;20456;-69
2021/03/13 02:59:44;;;;;;;2.58;1.00;;;;;;;18.28;48.65;98329.16;4894213;29;20044;-69
2021/03/13 03:02:12;;;;;;;2.20;0.80;;;;;;;18.29;48.47;98336.06;4896077;29;20037;-69
2021/03/13 03:04:38;;;;;;;4.18;1.30;;;;;;;18.29;48.76;98340.56;4894550;29;20111;-69
2021/03/13 03:07:04;;;;;;;2.00;0.90;;;;;;;18.27;48.60;98346.94;4868274;29;20048;-70
2021/03/13 03:09:31;;;;;;;1.63;0.80;;;;;;;18.27;48.43;98348.78;4869039;29;20033;-70
2021/03/13 03:11:57;;;;;;;1.90;0.88;;;;;;;18.26;48.67;98353.28;4886472;29;20078;-70
2021/03/13 03:14:25;;;;;;;2.83;0.90;;;;;;;18.25;48.59;98354.34;4890647;29;20120;-69
2021/03/13 03:16:56;;;;;;;2.47;0.90;;;;;;;18.25;48.39;98359.66;4888974;29;20052;-69
2021/03/13 03:19:23;;;;;;;3.15;0.80;;;;;;;18.25;48.40;98367.59;4884313;29;20036;-69
2021/03/13 03:21:48;;;;;;;2.80;1.00;;;;;;;18.25;48.31;98374.75;4865771;29;20052;-71
2021/03/13 03:24:14;;;;;;;1.92;0.93;;;;;;;18.24;48.47;98379.28;4861970;29;20033;-70
2021/03/13 03:26:40;;;;;;;2.10;0.70;;;;;;;18.23;48.42;98392.78;4885764;29;20041;-69
2021/03/13 03:29:08;;;;;;;2.45;0.90;;;;;;;18.23;48.25;98392.78;4865365;29;20036;-69
2021/03/13 03:31:34;;;;;;;3.28;0.90;;;;;;;18.23;48.29;98398.09;4868772;29;20068;-70
2021/03/13 03:34:01;;;;;;;1.52;0.90;;;;;;;18.22;48.45;98396.50;4874344;29;20135;-69
2021/03/13 03:36:26;;;;;;;1.55;0.70;;;;;;;18.20;48.36;98423.28;4895127;29;20219;-71
2021/03/13 03:38:55;;;;;;;1.23;0.63;;;;;;;18.21;48.46;98413.47;4893435;29;20123;-69
2021/03/13 03:41:21;;;;;;;2.15;0.90;;;;;;;18.21;48.52;98429.38;4888402;29;20044;-69
2021/03/13 03:43:55;;;;;;;2.45;0.80;;;;;;;18.19;48.51;98429.63;4866104;29;20057;-69
2021/03/13 03:46:22;;;;;;;2.75;0.80;;;;;;;18.19;48.27;98437.59;4893573;29;20029;-70
2021/03/13 03:48:50;;;;;;;2.33;0.80;;;;;;;18.18;48.49;98430.69;4884519;29;20029;-69
2021/03/13 03:51:16;;;;;;;2.03;0.70;;;;;;;18.18;48.13;98422.72;4891260;29;20420;-69
2021/03/13 03:53:45;;;;;;;2.83;0.82;;;;;;;18.17;48.37;98438.88;4861972;29;20040;-70
2021/03/13 03:56:10;;;;;;;1.92;0.65;;;;;;;18.17;48.34;98460.91;4893617;29;20048;-69
2021/03/13 03:58:44;;;;;;;1.33;0.70;;;;;;;18.17;48.45;98466.22;4894047;29;20039;-70
2021/03/13 04:01:13;;;;;;;1.65;0.77;;;;;;;18.17;48.40;98460.13;4873818;29;20045;-69
2021/03/13 04:03:50;;;;;;;1.75;0.65;;;;;;;18.16;48.64;98493.81;4881875;29;20092;-70
2021/03/13 04:06:17;;;;;;;1.58;0.60;;;;;;;18.18;48.38;98501.53;4893208;29;20048;-69
2021/03/13 04:08:44;;;;;;;1.95;0.80;;;;;;;18.17;48.37;98515.84;4881263;29;20055;-70
2021/03/13 04:11:18;;;;;;;2.15;0.75;;;;;;;18.16;48.46;98523.00;4858768;29;20089;-69
2021/03/13 04:13:46;;;;;;;2.08;0.73;;;;;;;18.16;48.71;98532.81;4891741;29;20040;-69
2021/03/13 04:16:13;;;;;;;2.58;0.80;;;;;;;18.15;48.39;98536.50;4883846;29;20048;-69
2021/03/13 04:18:40;;;;;;;1.92;0.80;;;;;;;18.14;48.51;98546.28;4878714;29;20104;-69
2021/03/13 04:21:06;;;;;;;1.65;0.60;;;;;;;18.15;48.62;98555.09;4886869;29;20143;-70
2021/03/13 04:23:34;;;;;;;2.70;0.70;;;;;;;18.13;48.46;98573.06;4891735;29;20536;-71
2021/03/13 04:26:00;;;;;;;1.98;0.70;;;;;;;18.14;48.44;98577.31;4894940;29;20044;-69
2021/03/13 04:28:26;;;;;;;2.28;0.75;;;;;;;18.12;48.54;98579.41;4892653;29;20163;-69
2021/03/13 04:30:51;;;;;;;1.25;0.65;;;;;;;18.13;48.52;98594.28;4882955;29;20095;-70
2021/03/13 04:33:19;;;;;;;1.55;0.57;;;;;;;18.11;48.38;98597.19;4865884;29;20068;-73
2021/03/13 04:35:46;;;;;;;2.30;0.80;;;;;;;18.13;48.64;98607.56;4892992;29;20088;-69
2021/03/13 04:38:15;;;;;;;2.05;0.60;;;;;;;18.14;48.75;98625.09;4883076;29;20422;-69
2021/03/13 04:40:41;;;;;;;2.38;0.85;;;;;;;18.14;48.75;98630.41;4892655;29;20187;-70
2021/03/13 04:43:07;;;;;;;1.67;0.50;;;;;;;18.14;48.83;98635.69;4893168;29;20461;-70
2021/03/13 04:45:34;;;;;;;1.42;0.50;;;;;;;18.15;48.40;98648.75;4890530;29;20048;-70
2021/03/13 04:48:01;;;;;;;1.15;0.50;;;;;;;18.16;48.68;98636.28;4883866;29;20049;-70
2021/03/13 04:50:26;;;;;;;1.83;0.60;;;;;;;18.17;48.76;98659.13;4877217;29;20551;-69
2021/03/13 04:52:52;;;;;;;1.02;0.50;;;;;;;18.17;48.53;98659.94;4886399;29;20037;-69
2021/03/13 04:55:18;;;;;;;1.85;0.65;;;;;;;18.18;48.52;98663.38;4861037;29;20036;-69
2021/03/13 04:57:43;;;;;;;1.08;0.60;;;;;;;18.19;48.68;98680.91;4892095;29;20044;-69
2021/03/13 05:00:15;;;;;;;0.90;0.60;;;;;;;18.19;48.63;98687.03;4877333;29;20372;-70
2021/03/13 05:02:40;;;;;;;1.33;0.50;;;;;;;18.22;48.55;98691.06;4873687;29;20115;-69
2021/03/13 05:05:08;;;;;;;1.08;0.50;;;;;;;18.22;48.81;98697.16;4894388;29;20632;-70
2021/03/13 05:07:34;;;;;;;1.23;0.60;;;;;;;18.23;48.78;98705.94;4867378;29;20079;-69
2021/03/13 05:09:59;;;;;;;1.90;0.70;;;;;;;18.24;48.74;98721.63;4882307;29;20488;-69
2021/03/13 05:12:25;;;;;;;3.00;0.82;;;;;;;18.24;48.99;98720.81;4864388;29;20101;-69
2021/03/13 05:14:50;;;;;;;1.60;0.57;;;;;;;18.26;48.78;98731.97;4879683;29;20032;-69
2021/03/13 05:17:16;;;;;;;1.58;0.60;;;;;;;18.27;48.58;98733.59;4871258;29;20689;-70
2021/03/13 05:19:41;;;;;;;2.05;0.50;;;;;;;18.27;48.90;98742.38;4888875;29;20043;-70
2021/03/13 05:22:08;;;;;;;1.80;0.50;;;;;;;18.29;48.64;98751.94;4884018;29;20107;-69
2021/03/13 05:24:34;;;;;;;1.40;0.50;;;;;;;18.29;49.02;98758.03;4859121;29;20389;-69
2021/03/13 05:26:59;;;;;;;1.60;0.50;;;;;;;18.31;48.77;98760.50;4875881;29;20043;-69
2021/03/13 05:29:25;;;;;;;1.23;0.47;;;;;;;18.31;48.90;98774.56;4890559;29;20037;-69
2021/03/13 05:31:50;;;;;;;1.23;0.50;;;;;;;18.31;48.61;98787.84;4892841;29;20060;-69
2021/03/13 05:34:16;;;;;;;0.93;0.60;;;;;;;18.33;48.84;98799.03;4894353;29;20448;-69
2021/03/13 05:36:41;;;;;;;0.98;0.40;;;;;;;18.32;48.58;98796.59;4890898;29;20044;-70
2021/03/13 05:39:07;;;;;;;0.82;0.50;;;;;;;18.33;48.63;98806.19;4893391;29;20036;-70
2021/03/13 05:41:37;;;;;;;1.20;0.70;;;;;;;18.34;48.74;98813.09;4864273;29;20127;-70
2021/03/13 05:44:05;;;;;;;1.23;0.47;;;;;;;18.34;48.77;98810.44;4879988;29;20525;-70
2021/03/13 05:46:36;;;;;;;0.88;0.45;;;;;;;18.34;48.76;98816.56;4885918;29;20033;-70
2021/03/13 05:49:08;;;;;;;0.63;0.30;;;;;;;18.33;48.76;98822.91;4875365;29;20028;-70
2021/03/13 05:51:36;;;;;;;0.95;0.40;;;;;;;18.35;48.71;98830.63;4892185;29;20100;-70
2021/03/13 05:54:03;;;;;;;0.93;0.47;;;;;;;18.33;48.61;98830.88;4890188;29;20052;-69
2021/03/13 05:56:29;;;;;;;1.67;0.50;;;;;;;18.34;48.52;98836.97;4883592;29;20045;-69
2021/03/13 05:58:57;;;;;;;1.00;0.40;;;;;;;18.33;48.45;98849.44;4876134;29;20096;-70
2021/03/13 06:01:25;;;;;;;0.90;0.38;;;;;;;18.33;48.54;98852.09;4888638;29;20107;-69
2021/03/13 06:03:51;;;;;;;1.02;0.50;;;;;;;18.34;48.56;98872.28;4878987;29;20035;-69
2021/03/13 06:06:17;;;;;;;0.73;0.40;;;;;;;18.33;48.58;98869.88;4879996;29;20541;-69
2021/03/13 06:08:44;;;;;;;1.67;0.50;;;;;;;18.33;48.49;98875.19;4857877;29;20041;-69
2021/03/13 06:11:10;;;;;;;1.45;0.60;;;;;;;18.32;48.35;98879.69;4891878;29;20365;-69
2021/03/13 06:13:35;;;;;;;1.38;0.45;;;;;;;18.32;48.05;98879.69;4851727;29;20092;-69
2021/03/13 06:16:01;;;;;;;1.15;0.40;;;;;;;18.32;48.03;98884.19;4875960;29;20036;-70
2021/03/13 06:18:49;;;;;;;1.23;0.50;;;;;;;18.29;48.35;98896.06;4875791;29;20059;-70
2021/03/13 06:21:26;;;;;;;0.60;0.38;;;;;;;18.30;48.14;98895.03;4887879;29;20037;-69
2021/03/13 06:23:59;;;;;;;0.77;0.40;;;;;;;18.31;48.09;98917.09;4902238;29;20032;-69
2021/03/13 06:26:26;;;;;;;1.35;0.32;;;;;;;18.30;48.06;98904.84;4880128;29;20071;-69
2021/03/13 06:28:53;;;;;;;1.13;0.40;;;;;;;18.29;48.22;98917.28;4891889;29;20052;-69
2021/03/13 06:31:24;;;;;;;1.10;0.50;;;;;;;18.28;48.00;98928.94;4890050;29;20076;-69
2021/03/13 06:33:50;;;;;;;0.75;0.40;;;;;;;18.28;48.25;98939.56;4896686;29;20037;-69
2021/03/13 06:36:21;;;;;;;0.95;0.45;;;;;;;18.28;48.30;98939.56;4879211;29;20045;-69
2021/03/13 06:38:47;;;;;;;0.80;0.40;;;;;;;18.27;48.24;98954.69;4877917;29;20036;-70
2021/03/13 06:41:22;;;;;;;0.47;0.25;;;;;;;18.26;48.34;98947.78;4873529;29;20040;-69
2021/03/13 06:43:49;;;;;;;1.70;0.50;;;;;;;18.27;48.22;98951.22;4880114;29;20032;-69
2021/03/13 06:46:20;;;;;;;0.55;0.38;;;;;;;18.28;48.28;98950.19;4886303;29;20029;-69
2021/03/13 06:48:50;;;;;;;1.00;0.38;;;;;;;18.28;48.28;98958.16;4893957;29;20455;-69
2021/03/13 06:51:37;;;;;;;0.60;0.30;;;;;;;18.28;48.50;98976.72;4896288;29;20052;-69
2021/03/13 06:54:05;;;;;;;0.85;0.40;;;;;;;18.29;48.29;98970.38;4878769;29;20043;-69
2021/03/13 06:56:33;;;;;;;0.77;0.40;;;;;;;18.31;48.37;98973.63;4877381;29;20123;-69
2021/03/13 06:59:01;;;;;;;0.90;0.40;;;;;;;18.33;48.52;98984.81;4876365;29;20433;-70
2021/03/13 07:01:28;;;;;;;0.98;0.43;;;;;;;18.35;48.75;98982.75;4873339;29;20047;-69
2021/03/13 07:03:54;;;;;;;0.43;0.35;;;;;;;18.36;48.46;98981.69;4890952;29;20069;-69
2021/03/13 07:06:21;;;;;;;0.55;0.30;;;;;;;18.38;48.76;98987.56;4894716;29;20036;-72
2021/03/13 07:08:49;;;;;;;0.30;0.30;;;;;;;18.40;48.88;98997.97;4875954;29;20087;-69
2021/03/13 07:11:24;;;;;;;1.33;0.43;;;;;;;18.43;48.94;98989.53;4875169;29;20085;-69
2021/03/13 07:13:54;;;;;;;0.80;0.40;;;;;;;18.48;48.50;99002.94;4890739;29;20036;-69
2021/03/13 07:16:40;;;;;;;0.80;0.40;;;;;;;18.49;48.89;99010.66;4893534;29;20568;-68
2021/03/13 07:19:11;;;;;;;1.35;0.40;;;;;;;18.53;48.67;99011.81;4885751;29;20128;-68
2021/03/13 07:21:42;;;;;;;0.85;0.32;;;;;;;18.58;48.57;99019.06;4884175;29;20123;-71
2021/03/13 07:24:13;;;;;;;1.75;0.50;;;;;;;18.62;48.75;99024.72;4888022;29;20059;-68
2021/03/13 07:26:46;;;;;;;1.63;0.40;;;;;;;18.65;48.64;99027.75;4890867;29;20033;-68
2021/03/13 07:29:18;;;;;;;1.00;0.30;;;;;;;18.69;48.73;99028.09;4864622;29;20040;-69
2021/03/13 07:31:52;;;;;;;0.68;0.40;;;;;;;18.71;48.53;99016.19;4890064;29;20048;-69
2021/03/13 07:34:26;;;;;;;0.88;0.40;;;;;;;18.75;48.87;99021.84;4878389;29;20048;-69
2021/03/13 07:36:54;;;;;;;1.13;0.40;;;;;;;18.77;48.74;99022.41;4891019;29;20032;-70
2021/03/13 07:39:28;;;;;;;0.85;0.40;;;;;;;18.79;48.44;99037.09;4892074;29;20032;-69
2021/03/13 07:42:03;;;;;;;2.60;0.98;;;;;;;18.82;49.03;99036.63;4889152;29;20036;-67
2021/03/13 07:44:30;;;;;;;0.77;0.38;;;;;;;18.85;48.49;99059.25;4869011;29;20060;-67
2021/03/13 07:46:57;;;;;;;0.88;0.40;;;;;;;18.87;48.95;99057.16;4872982;29;20146;-67
2021/03/13 07:49:23;;;;;;;3.00;0.57;;;;;;;18.89;48.83;99060.38;4873291;29;20048;-68
2021/03/13 07:51:49;;;;;;;0.63;0.35;;;;;;;18.89;48.96;99063.03;4870253;29;20048;-67
2021/03/13 07:54:15;;;;;;;2.25;0.38;;;;;;;18.89;48.80;99063.03;4871350;29;20668;-67
2021/03/13 07:56:43;;;;;;;0.98;0.40;;;;;;;18.91;48.61;99068.94;4869257;29;20326;-68
2021/03/13 07:59:10;;;;;;;1.83;0.50;;;;;;;18.91;48.39;99081.41;4869538;29;20037;-68
2021/03/13 08:01:50;;;;;;;4.45;0.75;;;;;;;18.91;48.48;99060.16;4871176;29;20064;-68
2021/03/13 08:04:37;;;;;;;2.55;0.50;;;;;;;18.91;48.57;99100.81;4867610;29;20468;-68
2021/03/13 08:07:04;;;;;;;2.40;0.80;;;;;;;18.92;48.67;99093.66;4860050;29;20111;-70
2021/03/13 08:09:29;;;;;;;2.60;0.52;;;;;;;18.91;48.65;99102.66;4871169;29;20037;-70
2021/03/13 08:11:55;;;;;;;1.17;0.40;;;;;;;18.91;49.11;99111.44;4864321;29;20029;-66
2021/03/13 08:14:34;;;;;;;2.10;0.65;;;;;;;18.90;49.53;99106.34;4868153;29;20571;-72
2021/03/13 08:17:10;;;;;;;2.38;0.70;;;;;;;18.91;49.90;99118.59;4859708;29;20101;-67
2021/03/13 08:19:38;;;;;;;2.75;0.45;;;;;;;18.91;49.90;99114.09;4874129;29;20033;-70
2021/03/13 08:22:10;;;;;;;7.60;1.13;;;;;;;18.91;50.05;99123.91;4868823;29;20073;-71
2021/03/13 08:24:46;;;;;;;2.33;0.60;;;;;;;18.91;50.50;99126.56;4870493;29;20039;-71
2021/03/13 08:27:13;;;;;;;3.05;0.55;;;;;;;18.91;50.80;99131.88;4873834;29;20761;-71
2021/03/13 08:29:47;;;;;;;3.05;0.50;;;;;;;18.90;50.67;99133.72;4873881;29;20032;-71
2021/03/13 08:32:13;;;;;;;7.22;0.65;;;;;;;18.90;50.40;99132.94;4861078;29;20541;-71
2021/03/13 08:34:40;;;;;;;1.88;0.57;;;;;;;18.91;50.69;99151.28;4873895;29;20136;-72
2021/03/13 08:37:17;;;;;;;3.30;0.68;;;;;;;18.89;50.65;99149.91;4876546;29;20076;-72
2021/03/13 08:39:42;;;;;;;5.18;0.73;;;;;;;18.88;50.91;99157.06;4872444;29;20056;-70
2021/03/13 08:42:08;;;;;;;3.20;0.60;;;;;;;18.88;50.95;99145.63;4860811;29;20456;-71
2021/03/13 08:44:37;;;;;;;3.03;0.85;;;;;;;18.88;51.21;99161.56;4880868;29;20056;-74
2021/03/13 08:47:12;;;;;;;4.72;2.25;;;;;;;18.87;51.82;99167.94;4876683;29;20028;-71
2021/03/13 08:49:40;;;;;;;32.13;19.85;;;;;;;18.86;51.68;99175.09;4884804;29;20073;-70
2021/03/13 08:52:09;;;;;;;26.08;15.65;;;;;;;18.86;51.59;99188.38;4866841;29;20044;-70
2021/03/13 08:54:40;;;;;;;15.27;10.02;;;;;;;18.85;51.50;99186.78;4876440;29;20036;-71
2021/03/13 08:57:07;;;;;;;17.48;11.35;;;;;;;18.86;51.36;99188.38;4867077;29;20105;-73
2021/03/13 08:59:33;;;;;;;18.98;11.35;;;;;;;18.86;51.00;99201.66;4893680;29;20033;-71
2021/03/13 09:02:24;;;;;;;17.08;8.73;;;;;;;18.82;50.77;99192.56;4863104;29;20040;-71
2021/03/13 09:04:52;;;;;;;15.18;9.18;;;;;;;18.84;50.65;99198.44;4892472;29;20038;-70
2021/03/13 09:07:23;;;;;;;17.58;8.18;;;;;;;18.83;50.42;99205.59;4861806;29;20043;-69
2021/03/13 09:09:50;;;;;;;17.05;8.43;;;;;;;18.83;50.66;99204.78;4890091;29;20108;-70
2021/03/13 09:12:18;;;;;;;13.75;8.40;;;;;;;18.84;50.65;99214.38;4874210;29;20136;-69
2021/03/13 09:14:50;;;;;;;13.07;7.13;;;;;;;18.84;50.17;99219.69;4873529;29;20044;-68
2021/03/13 09:17:18;;;;;;;12.15;6.88;;;;;;;18.85;50.47;99221.31;4880694;29;20039;-65
2021/03/13 09:19:47;;;;;;;15.30;8.10;;;;;;;18.84;49.92;99228.47;4887569;29;20131;-70
2021/03/13 09:22:23;;;;;;;13.85;8.48;;;;;;;18.83;49.80;99226.03;4873167;29;20120;-69
2021/03/13 09:24:54;;;;;;;12.38;8.32;;;;;;;18.84;49.55;99241.75;4859420;29;20021;-72
2021/03/13 09:27:24;;;;;;;10.02;7.38;;;;;;;18.83;49.53;99244.63;4890087;29;20031;-69
2021/03/13 09:29:53;;;;;;;13.10;7.65;;;;;;;18.84;49.55;99248.91;4868082;29;20465;-71
2021/03/13 09:32:18;;;;;;;12.18;6.53;;;;;;;18.84;49.15;99247.06;4871144;29;20431;-67
2021/03/13 09:34:46;;;;;;;8.20;5.45;;;;;;;18.84;49.01;99243.59;4871721;29;20112;-65
2021/03/13 09:37:19;;;;;;;7.80;4.85;;;;;;;18.84;48.85;99256.88;4886962;29;20052;-65
2021/03/13 09:39:47;;;;;;;10.40;4.88;;;;;;;18.83;48.45;99264.03;4888902;29;20048;-65
2021/03/13 09:42:16;;;;;;;7.78;3.72;;;;;;;18.81;47.95;99274.09;4869014;29;20085;-64
2021/03/13 09:44:49;;;;;;;6.30;3.65;;;;;;;18.79;47.90;99281.50;4884133;29;20059;-63
2021/03/13 09:47:25;;;;;;;5.65;3.30;;;;;;;18.79;47.32;99291.31;4875959;29;20051;-63
2021/03/13 09:49:59;;;;;;;7.78;3.20;;;;;;;18.76;47.42;99291.75;4887405;29;20037;-65
2021/03/13 09:52:24;;;;;;;7.35;2.60;;;;;;;18.75;47.40;99295.44;4890461;29;20040;-65
2021/03/13 09:54:57;;;;;;;6.07;2.67;;;;;;;18.73;47.07;99303.63;4889378;29;20037;-64
2021/03/13 09:57:26;;;;;;;5.30;2.10;;;;;;;18.75;46.72;99303.41;4884518;29;20048;-65
2021/03/13 09:59:52;;;;;;;4.85;2.03;;;;;;;18.73;46.65;99294.84;4885681;29;20033;-63
2021/03/13 10:02:17;;;;;;;4.35;1.85;;;;;;;18.72;46.44;99307.31;4854489;29;20567;-64
2021/03/13 10:04:43;;;;;;;7.03;1.83;;;;;;;18.71;46.26;99297.75;4877069;29;20401;-64
2021/03/13 10:07:09;;;;;;;8.30;1.85;;;;;;;18.69;46.44;99297.16;4889437;29;20044;-64
2021/03/13 10:09:49;;;;;;;6.75;2.08;;;;;;;18.67;46.12;99296.59;4888738;29;20068;-65
2021/03/13 10:12:23;;;;;;;3.53;1.50;;;;;;;18.67;46.45;99285.16;4887262;29;20044;-64
2021/03/13 10:14:49;;;;;;;5.90;1.55;;;;;;;18.66;46.14;99316.22;4888810;29;20673;-64
2021/03/13 10:17:15;;;;;;;6.15;1.65;;;;;;;18.64;45.98;99312.97;4887074;29;20036;-64
2021/03/13 10:19:42;;;;;;;6.07;1.48;;;;;;;18.62;45.47;99282.31;4858576;29;20032;-64
2021/03/13 10:22:10;;;;;;;5.03;1.45;;;;;;;18.57;44.49;99322.84;4888534;29;20127;-63
2021/03/13 10:24:56;;;;;;;3.92;1.23;;;;;;;18.50;44.50;99309.66;4885366;29;20808;-64
2021/03/13 10:27:28;;;;;;;6.32;1.30;;;;;;;18.47;43.79;99326.06;4887753;29;20119;-63
2021/03/13 10:30:03;;;;;;;3.83;1.05;;;;;;;18.42;43.89;99325.91;4885062;29;20032;-64
2021/03/13 10:32:31;;;;;;;7.32;1.50;;;;;;;18.38;44.03;99322.06;4887357;29;20043;-64
2021/03/13 10:35:11;;;;;;;7.38;1.70;;;;;;;18.35;43.65;99327.03;4872957;29;20083;-65
2021/03/13 10:37:51;;;;;;;6.15;1.20;;;;;;;18.32;43.27;99315.03;4870608;29;20694;-66
2021/03/13 10:40:33;;;;;;;4.15;1.17;;;;;;;18.30;43.37;99322.38;4885036;29;20032;-64
2021/03/13 10:43:21;;;;;;;3.75;1.13;;;;;;;18.27;42.80;99315.69;4891885;29;20088;-63
2021/03/13 10:46:09;;;;;;;3.60;1.15;;;;;;;18.24;42.40;99329.41;4886104;29;20488;-63
2021/03/13 10:48:38;;;;;;;5.97;1.05;;;;;;;18.24;42.49;99331.25;4885379;29;20044;-66
2021/03/13 10:51:04;;;;;;;6.57;1.75;;;;;;;18.21;42.42;99307.81;4890052;29;20127;-64
2021/03/13 10:53:34;;;;;;;5.07;1.00;;;;;;;18.17;41.79;99314.59;4890351;29;20521;-65
2021/03/13 10:56:05;;;;;;;3.47;0.98;;;;;;;18.14;41.64;99315.03;4887609;29;20517;-64
2021/03/13 10:58:32;;;;;;;3.53;0.80;;;;;;;18.11;41.65;99310.97;4873316;29;20032;-64
2021/03/13 11:00:58;;;;;;;2.92;1.23;;;;;;;18.09;41.66;99313.06;4874984;29;20203;-64
2021/03/13 11:03:24;;;;;;;3.15;0.95;;;;;;;18.06;41.44;99313.50;4857017;29;20045;-64
2021/03/13 11:05:51;;;;;;;6.20;1.15;;;;;;;18.03;40.94;99315.78;4893332;29;20029;-64
2021/03/13 11:08:22;;;;;;;4.28;1.17;;;;;;;18.00;41.09;99310.94;4884170;29;20481;-64
2021/03/13 11:10:48;;;;;;;5.10;1.38;;;;;;;17.96;40.76;99327.28;4874146;29;20051;-64
2021/03/13 11:13:15;;;;;;;3.92;1.33;;;;;;;17.94;40.74;99310.78;4884882;29;20048;-64
2021/03/13 11:15:40;;;;;;;3.35;0.88;;;;;;;17.91;40.94;99308.56;4865370;29;20041;-64
2021/03/13 11:18:06;;;;;;;3.60;0.98;;;;;;;17.89;40.79;99318.59;4886105;29;20079;-64
2021/03/13 11:20:33;;;;;;;4.82;1.20;;;;;;;17.86;40.94;99326.19;4895524;29;20036;-64
2021/03/13 11:22:59;;;;;;;4.68;1.10;;;;;;;17.85;40.48;99316.63;4877935;29;20725;-64
2021/03/13 11:25:25;;;;;;;2.75;1.00;;;;;;;17.83;40.25;99332.75;4885292;29;20044;-64
2021/03/13 11:27:50;;;;;;;4.05;1.10;;;;;;;17.80;40.50;99329.72;4878466;29;20041;-64
2021/03/13 11:30:17;;;;;;;6.15;1.40;;;;;;;17.78;40.16;99334.44;4894740;29;20666;-64
2021/03/13 11:32:43;;;;;;;4.43;1.48;;;;;;;17.75;40.30;99348.13;4894915;29;20047;-64
2021/03/13 11:35:09;;;;;;;6.10;1.38;;;;;;;17.73;40.28;99358.97;4878150;29;20041;-64
2021/03/13 11:37:35;;;;;;;4.65;1.02;;;;;;;17.71;39.85;99346.97;4893215;29;20115;-65
2021/03/13 11:40:03;;;;;;;5.95;1.20;;;;;;;17.69;40.11;99373.72;4867770;29;20057;-64